Time;durP1;ratioP1;P1;durP2;ratioP2;P2;SDS_P1;SDS_P2;PMS_P1;PMS_P2;Temp;Humidity;BMP_temperature;BMP_pressure;BME280_temperature;BME280_humidity;BME280_pressure;Samples;Min_cycle;Max_cycle;Signal;HPM_P1;HPM_P2
2022/09/30 10:50:17;;;;;;;5.17;3.22;;;25.50;65.70;;;;;;1959112;73;25712;-56
2022/09/30 10:53:01;;;;;;;3.45;3.15;;;25.30;65.40;;;;;;1918317;75;21035;-57
2022/09/30 10:55:35;;;;;;;6.00;3.65;;;25.40;64.90;;;;;;1916520;74;21535;-57
2022/09/30 10:58:05;;;;;;;;;;;25.50;64.60;;;;;;1921164;75;21093;-57
2022/09/30 11:00:34;;;;;;;5.25;3.37;;;25.50;64.30;;;;;;1915767;74;20136;-57
2022/09/30 11:03:09;;;;;;;6.28;3.58;;;25.60;64.30;;;;;;1918324;75;20999;-57
2022/09/30 11:05:43;;;;;;;4.35;3.15;;;25.70;63.70;;;;;;1918088;74;21123;-57
2022/09/30 11:08:29;;;;;;;;;;;25.70;63.30;;;;;;1919953;74;21406;-56
2022/09/30 11:11:09;;;;;;;7.47;3.25;;;25.80;63.30;;;;;;1918233;75;20101;-57
2022/09/30 11:14:02;;;;;;;10.38;6.45;;;25.80;62.30;;;;;;1918136;74;21591;-57
2022/09/30 11:16:49;;;;;;;5.10;3.02;;;25.90;62.00;;;;;;1885536;75;21088;-57
2022/09/30 11:19:29;;;;;;;3.90;2.80;;;26.00;61.50;;;;;;1911950;74;21513;-57
2022/09/30 11:22:10;;;;;;;6.67;3.05;;;26.00;61.10;;;;;;1918219;74;21099;-57
2022/09/30 11:24:45;;;;;;;11.78;4.62;;;26.00;60.90;;;;;;1917267;74;21022;-56
2022/09/30 11:27:32;;;;;;;9.00;3.60;;;26.00;61.00;;;;;;1918472;74;21050;-57
2022/09/30 11:30:16;;;;;;;4.95;3.20;;;26.10;60.90;;;;;;1917257;75;21477;-57
2022/09/30 11:32:48;;;;;;;4.87;2.62;;;26.10;60.80;;;;;;1918233;74;21481;-57
2022/09/30 11:35:41;;;;;;;5.03;2.60;;;26.10;60.60;;;;;;1918183;73;21477;-57
2022/09/30 11:38:25;;;;;;;6.72;3.35;;;26.20;60.10;;;;;;1912767;75;21018;-57
2022/09/30 11:40:57;;;;;;;3.42;2.83;;;26.20;59.90;;;;;;1918513;74;21027;-57
2022/09/30 11:43:51;;;;;;;8.10;3.05;;;26.20;59.70;;;;;;1918341;75;21093;-57
2022/09/30 11:46:35;;;;;;;4.65;2.47;;;26.20;59.50;;;;;;1917983;74;21526;-56
2022/09/30 11:49:10;;;;;;;4.33;2.50;;;26.20;59.50;;;;;;1920361;74;21043;-57
2022/09/30 11:51:58;;;;;;;11.43;4.37;;;26.20;59.50;;;;;;1925413;74;21109;-56
2022/09/30 11:54:42;;;;;;;16.32;3.83;;;26.20;59.40;;;;;;1925336;74;21064;-57
2022/09/30 11:57:20;;;;;;;6.35;3.10;;;26.20;59.20;;;;;;1924826;74;21045;-57
2022/09/30 12:00:01;;;;;;;4.00;2.52;;;26.20;58.60;;;;;;1925271;74;21525;-57
2022/09/30 12:02:40;;;;;;;6.70;3.10;;;26.20;58.50;;;;;;1923280;74;21070;-57
2022/09/30 12:05:24;;;;;;;2.95;2.52;;;26.20;58.20;;;;;;1924542;74;21038;-57
2022/09/30 12:08:12;;;;;;;4.58;2.70;;;26.20;57.80;;;;;;1923669;74;21485;-57
2022/09/30 12:10:56;;;;;;;4.85;2.65;;;26.20;57.70;;;;;;1924749;74;21034;-57
2022/09/30 12:13:28;;;;;;;8.23;3.05;;;26.20;57.60;;;;;;1924911;74;21220;-57
2022/09/30 12:15:59;;;;;;;7.55;3.35;;;26.20;57.60;;;;;;1923609;74;21437;-57
2022/09/30 12:18:34;;;;;;;6.80;4.37;;;26.20;57.60;;;;;;1924615;74;21047;-57
2022/09/30 12:21:12;;;;;;;3.08;2.52;;;26.20;57.30;;;;;;1924634;74;21019;-57
2022/09/30 12:23:47;;;;;;;5.58;3.35;;;26.20;57.10;;;;;;1896018;74;21035;-57
2022/09/30 12:26:17;;;;;;;6.00;2.55;;;26.20;57.30;;;;;;1923474;74;21133;-57
2022/09/30 12:32:18;;;;;;;5.42;2.55;;;26.20;56.90;;;;;;1924755;74;21112;-57
2022/09/30 12:35:16;;;;;;;3.90;2.87;;;26.20;57.10;;;;;;1924467;74;21057;-57
2022/09/30 12:38:04;;;;;;;8.23;2.83;;;26.20;57.20;;;;;;1924374;74;21018;-57
2022/09/30 12:41:01;;;;;;;5.42;3.12;;;26.20;57.30;;;;;;1924644;74;21042;-57
2022/09/30 12:43:41;;;;;;;10.65;4.20;;;26.20;56.90;;;;;;1924596;74;21018;-57
2022/09/30 12:46:16;;;;;;;5.75;2.80;;;26.20;56.90;;;;;;1923827;74;21018;-57
2022/09/30 12:48:51;;;;;;;7.22;3.12;;;26.20;56.90;;;;;;1923333;74;21054;-57
2022/09/30 12:51:32;;;;;;;11.95;3.90;;;26.20;56.90;;;;;;1905259;75;21089;-57
2022/09/30 12:54:07;;;;;;;8.40;3.55;;;26.20;56.60;;;;;;1900628;74;21121;-57
2022/09/30 12:56:38;;;;;;;6.22;2.98;;;26.20;56.50;;;;;;1894277;74;21012;-57
2022/09/30 12:59:08;;;;;;;5.58;3.05;;;26.10;56.40;;;;;;1905089;74;21427;-57
2022/09/30 13:01:39;;;;;;;8.20;2.87;;;26.10;56.10;;;;;;1905117;75;21019;-58
2022/09/30 13:04:11;;;;;;;4.55;2.55;;;26.10;56.30;;;;;;1905150;74;21541;-57
2022/09/30 13:06:48;;;;;;;4.53;2.75;;;26.10;56.40;;;;;;1904922;74;21508;-57
2022/09/30 13:09:23;;;;;;;4.80;2.58;;;26.10;56.40;;;;;;1905037;75;21453;-57
2022/09/30 13:12:01;;;;;;;3.67;2.70;;;26.10;56.40;;;;;;1904439;74;21114;-57
2022/09/30 13:14:47;;;;;;;5.75;3.08;;;26.10;56.30;;;;;;1905084;75;21036;-57
2022/09/30 13:17:12;;;;;;;3.62;2.42;;;26.10;56.30;;;;;;1900359;74;21560;-57
2022/09/30 13:19:50;;;;;;;20.92;2.83;;;26.00;56.00;;;;;;1905066;75;20987;-57
2022/09/30 13:22:28;;;;;;;5.25;2.80;;;26.00;56.10;;;;;;1905147;74;21024;-57
2022/09/30 13:25:04;;;;;;;7.28;3.05;;;26.00;55.90;;;;;;1904371;74;21050;-57
2022/09/30 13:27:42;;;;;;;6.03;3.00;;;26.00;55.90;;;;;;1905242;75;21004;-58
2022/09/30 13:30:16;;;;;;;4.75;3.37;;;26.00;55.90;;;;;;1905275;74;21101;-57
2022/09/30 13:32:58;;;;;;;4.42;2.75;;;25.90;55.90;;;;;;1905192;75;21011;-58
2022/09/30 13:35:50;;;;;;;6.67;3.22;;;25.90;55.90;;;;;;1904933;74;21085;-57
2022/09/30 13:38:24;;;;;;;6.53;3.67;;;25.80;55.90;;;;;;1905536;75;21023;-58
2022/09/30 13:40:55;;;;;;;7.33;3.87;;;25.80;56.00;;;;;;1905262;75;21212;-57
2022/09/30 13:43:37;;;;;;;6.72;3.47;;;25.80;56.00;;;;;;1905204;74;21110;-58
2022/09/30 13:46:14;;;;;;;11.60;4.10;;;25.80;56.10;;;;;;1905151;75;21007;-58
2022/09/30 13:48:46;;;;;;;6.65;3.58;;;25.80;56.30;;;;;;1905260;74;21028;-57
2022/09/30 13:51:18;;;;;;;12.75;4.42;;;25.80;56.20;;;;;;1921811;74;21115;-58
2022/09/30 13:53:54;;;;;;;11.97;3.75;;;25.70;56.20;;;;;;1924467;74;21088;-57
2022/09/30 13:56:29;;;;;;;9.28;3.47;;;25.60;56.30;;;;;;1924590;74;21042;-58
2022/09/30 13:59:30;;;;;;;7.08;3.12;;;25.60;56.60;;;;;;1924670;74;21023;-58
2022/09/30 14:02:17;;;;;;;9.73;3.25;;;25.60;56.70;;;;;;1924369;74;21042;-57
2022/09/30 14:05:01;;;;;;;8.38;3.65;;;25.50;57.00;;;;;;1924540;74;21034;-57
2022/09/30 14:07:35;;;;;;;6.00;3.52;;;25.50;57.30;;;;;;1924594;74;21014;-58
2022/09/30 14:10:08;;;;;;;7.87;3.40;;;25.50;57.70;;;;;;1924528;74;21018;-57
2022/09/30 14:12:46;;;;;;;9.35;3.22;;;25.40;57.90;;;;;;1924513;74;21554;-57
2022/09/30 14:15:20;;;;;;;8.78;4.20;;;25.30;58.10;;;;;;1923707;74;21015;-57
2022/09/30 14:17:55;;;;;;;8.33;3.40;;;25.30;58.40;;;;;;1924132;74;21050;-58
2022/09/30 14:20:27;;;;;;;;;;;25.30;58.70;;;;;;1927472;74;21015;-57
2022/09/30 14:22:57;;;;;;;14.90;5.30;;;25.20;58.90;;;;;;1923389;74;20133;-57
2022/09/30 14:25:28;;;;;;;5.85;3.47;;;25.10;59.10;;;;;;1924531;74;21022;-58
2022/09/30 14:28:07;;;;;;;10.60;4.00;;;25.10;59.40;;;;;;1924722;74;21096;-57
2022/09/30 14:30:41;;;;;;;10.43;4.10;;;25.00;59.80;;;;;;1921572;74;21085;-57
2022/09/30 14:33:13;;;;;;;10.05;3.75;;;25.00;60.10;;;;;;1924707;74;21058;-58
2022/09/30 14:35:42;;;;;;;11.33;4.47;;;24.90;60.40;;;;;;1924150;74;20998;-57
2022/09/30 14:38:26;;;;;;;8.85;4.05;;;24.80;60.60;;;;;;1924649;74;21018;-58
2022/09/30 14:40:59;;;;;;;11.48;4.87;;;24.80;60.90;;;;;;1924224;74;21096;-57
2022/09/30 14:43:34;;;;;;;;;;;24.70;61.30;;;;;;1926660;74;21168;-58
2022/09/30 14:46:03;;;;;;;10.65;5.42;;;24.60;61.50;;;;;;1923990;74;20131;-57
2022/09/30 14:48:35;;;;;;;11.90;4.67;;;24.50;61.80;;;;;;1924543;74;21018;-57
2022/09/30 14:51:14;;;;;;;8.23;4.08;;;24.40;62.10;;;;;;1912928;74;21043;-58
2022/09/30 14:53:54;;;;;;;7.47;4.17;;;24.30;62.40;;;;;;1905133;75;21015;-57
2022/09/30 14:56:35;;;;;;;14.98;4.45;;;24.30;62.60;;;;;;1904960;75;21458;-57
2022/09/30 14:59:23;;;;;;;10.00;4.33;;;24.20;62.90;;;;;;1905044;75;21015;-57
2022/09/30 15:01:56;;;;;;;7.37;4.20;;;24.10;63.40;;;;;;1905166;74;21027;-57
2022/09/30 15:04:31;;;;;;;10.35;5.08;;;24.00;63.70;;;;;;1905115;74;21043;-57
2022/09/30 15:07:04;;;;;;;10.58;5.35;;;23.90;64.20;;;;;;1905078;75;21047;-56
2022/09/30 15:09:39;;;;;;;8.55;4.70;;;23.80;64.40;;;;;;1905168;75;20996;-57
2022/09/30 15:12:14;;;;;;;7.90;4.58;;;23.70;64.80;;;;;;1904423;74;21086;-57
2022/09/30 15:14:48;;;;;;;6.22;4.20;;;23.60;64.90;;;;;;1905069;75;21035;-57
2022/09/30 15:17:18;;;;;;;;;;;23.60;65.20;;;;;;1907948;75;21093;-56
2022/09/30 15:19:49;;;;;;;7.53;5.33;;;23.50;65.30;;;;;;1905205;75;20150;-57
2022/09/30 15:22:20;;;;;;;12.60;6.33;;;23.40;65.30;;;;;;1905104;74;21528;-57
2022/09/30 15:24:50;;;;;;;11.73;7.22;;;23.40;65.80;;;;;;1905098;75;21071;-57
2022/09/30 15:27:28;;;;;;;15.75;6.65;;;23.30;66.20;;;;;;1905214;75;21062;-57
2022/09/30 15:30:00;;;;;;;8.80;4.80;;;23.30;66.70;;;;;;1905258;75;21040;-56
2022/09/30 15:32:32;;;;;;;6.75;4.90;;;23.20;68.00;;;;;;1905129;74;21034;-56
2022/09/30 15:35:18;;;;;;;11.43;4.87;;;23.20;67.70;;;;;;1905254;75;21019;-57
2022/09/30 15:37:47;;;;;;;10.08;5.08;;;23.10;67.70;;;;;;1905297;75;21399;-56
2022/09/30 15:43:14;;;;;;;13.50;5.12;;;22.90;68.60;;;;;;1905246;75;21199;-56
2022/09/30 15:45:43;;;;;;;21.50;13.72;;;22.90;69.00;;;;;;1905354;74;21085;-57
2022/09/30 15:48:27;;;;;;;13.65;7.08;;;22.80;69.30;;;;;;1905276;75;21015;-57
2022/09/30 15:51:04;;;;;;;25.48;6.87;;;22.70;69.50;;;;;;1911771;74;21163;-57
2022/09/30 15:53:32;;;;;;;14.63;7.15;;;22.70;69.80;;;;;;1923694;74;21062;-56
2022/09/30 15:56:04;;;;;;;27.20;11.30;;;22.60;70.00;;;;;;1924739;74;21457;-56
2022/09/30 15:58:38;;;;;;;19.77;8.43;;;22.60;70.00;;;;;;1920507;74;21418;-56
2022/09/30 16:01:17;;;;;;;21.65;11.75;;;22.50;70.20;;;;;;1924755;74;21101;-56
2022/09/30 16:04:00;;;;;;;13.85;6.42;;;22.40;70.30;;;;;;1924616;74;21085;-57
2022/09/30 16:06:54;;;;;;;9.40;6.25;;;22.40;70.70;;;;;;1923528;74;21085;-57
2022/09/30 16:09:34;;;;;;;12.53;6.60;;;22.30;71.10;;;;;;1923712;74;21022;-56
2022/09/30 16:12:17;;;;;;;17.82;7.08;;;22.30;71.50;;;;;;1924767;74;21023;-57
2022/09/30 16:15:01;;;;;;;11.78;5.75;;;22.30;71.80;;;;;;1924805;74;21466;-56
2022/09/30 16:17:33;;;;;;;19.52;8.53;;;22.20;72.10;;;;;;1924899;74;21570;-56
2022/09/30 16:20:09;;;;;;;15.32;7.78;;;22.20;72.30;;;;;;1924627;74;20994;-57
2022/09/30 16:22:44;;;;;;;28.20;12.15;;;22.20;72.70;;;;;;1924626;74;21104;-56
2022/09/30 16:25:32;;;;;;;27.13;13.55;;;22.20;72.80;;;;;;1924653;74;21112;-57
2022/09/30 16:28:14;;;;;;;42.43;18.05;;;22.10;73.00;;;;;;1924687;74;21022;-57
2022/09/30 16:30:53;;;;;;;60.95;21.15;;;22.10;73.30;;;;;;1924574;74;21035;-56
2022/09/30 16:33:22;;;;;;;33.48;21.07;;;22.10;73.50;;;;;;1924732;74;21019;-56
2022/09/30 16:35:51;;;;;;;37.50;17.90;;;22.00;73.30;;;;;;1924584;74;21040;-57
2022/09/30 16:38:21;;;;;;;38.42;20.32;;;22.00;73.60;;;;;;1924587;74;20999;-56
2022/09/30 16:40:50;;;;;;;41.83;19.82;;;21.90;73.80;;;;;;1924554;74;21054;-56
2022/09/30 16:43:20;;;;;;;43.80;20.62;;;21.90;74.00;;;;;;1924736;74;21123;-57
2022/09/30 16:45:49;;;;;;;49.58;21.00;;;21.80;74.20;;;;;;1924626;74;21080;-57
2022/09/30 16:48:20;;;;;;;33.80;15.83;;;21.80;74.60;;;;;;1924674;74;21081;-56
2022/09/30 16:50:54;;;;;;;34.70;14.15;;;21.70;74.90;;;;;;1924550;74;21505;-57
2022/09/30 16:53:23;;;;;;;24.02;13.68;;;21.70;75.10;;;;;;1924692;74;21019;-56
2022/09/30 16:55:52;;;;;;;22.45;11.30;;;21.60;75.30;;;;;;1924741;74;21030;-56
2022/09/30 16:58:22;;;;;;;31.10;11.83;;;21.60;75.40;;;;;;1924595;74;21026;-56
2022/09/30 17:00:51;;;;;;;25.15;10.65;;;21.50;75.50;;;;;;1924606;74;21015;-57
2022/09/30 17:03:21;;;;;;;20.02;10.23;;;21.50;75.50;;;;;;1924676;74;21448;-56
2022/09/30 17:05:51;;;;;;;14.43;8.28;;;21.40;75.60;;;;;;1924696;74;21144;-56
2022/09/30 17:08:22;;;;;;;15.70;8.15;;;21.40;75.80;;;;;;1924690;74;21085;-56
2022/09/30 17:10:51;;;;;;;18.23;9.90;;;21.30;76.10;;;;;;1924586;74;20999;-56
2022/09/30 17:13:21;;;;;;;22.82;10.95;;;21.20;76.20;;;;;;1924561;74;20999;-56
2022/09/30 17:15:51;;;;;;;18.52;10.32;;;21.20;76.20;;;;;;1924535;74;21078;-56
2022/09/30 17:18:20;;;;;;;21.65;13.30;;;21.20;76.20;;;;;;1924637;74;21062;-56
2022/09/30 17:20:55;;;;;;;23.00;12.95;;;21.10;76.40;;;;;;1924569;74;21078;-57
2022/09/30 17:23:22;;;;;;;18.92;11.08;;;21.00;76.60;;;;;;1923663;74;21046;-56
2022/09/30 17:25:51;;;;;;;27.13;13.90;;;21.00;77.10;;;;;;1924548;74;21088;-56
2022/09/30 17:28:21;;;;;;;21.35;12.93;;;20.90;77.30;;;;;;1924527;74;21092;-57
2022/09/30 17:30:50;;;;;;;24.80;12.93;;;20.90;77.70;;;;;;1924614;74;21027;-56
2022/09/30 17:33:20;;;;;;;26.45;16.40;;;20.90;78.00;;;;;;1924553;74;21042;-56
2022/09/30 17:36:01;;;;;;;29.52;16.93;;;20.90;78.20;;;;;;1924568;74;21369;-56
2022/09/30 17:38:30;;;;;;;27.82;15.68;;;20.90;78.30;;;;;;1924603;74;21104;-57
2022/09/30 17:43:49;;;;;;;36.08;19.45;;;20.80;78.60;;;;;;1924671;74;21100;-56
2022/09/30 17:46:21;;;;;;;27.75;16.87;;;20.80;78.60;;;;;;1924520;74;21088;-56
2022/09/30 17:48:51;;;;;;;22.58;13.30;;;20.80;78.80;;;;;;1924615;74;21543;-56
2022/09/30 17:51:20;;;;;;;28.92;18.95;;;20.80;79.10;;;;;;1924190;74;21634;-57
2022/09/30 17:53:50;;;;;;;51.02;20.68;;;20.80;79.30;;;;;;1905298;75;21071;-56
2022/09/30 17:56:21;;;;;;;29.63;18.62;;;20.80;79.40;;;;;;1905259;75;21101;-57
2022/09/30 17:58:51;;;;;;;38.83;17.90;;;20.80;79.40;;;;;;1905121;75;21094;-56
2022/09/30 18:01:21;;;;;;;39.23;18.27;;;20.80;79.50;;;;;;1905199;75;21063;-56
2022/09/30 18:03:52;;;;;;;44.27;21.05;;;20.70;79.60;;;;;;1905212;74;21132;-56
2022/09/30 18:06:21;;;;;;;44.80;19.57;;;20.70;79.60;;;;;;1905157;75;21081;-56
2022/09/30 18:08:51;;;;;;;34.90;15.20;;;20.70;79.50;;;;;;1891024;75;21498;-56
2022/09/30 18:11:25;;;;;;;42.43;18.15;;;20.70;79.70;;;;;;1905235;75;21051;-56
2022/09/30 18:13:56;;;;;;;38.70;17.40;;;20.60;79.90;;;;;;1905478;75;21011;-57
2022/09/30 18:16:30;;;;;;;31.30;16.17;;;20.60;80.10;;;;;;1905043;74;21019;-56
2022/09/30 18:19:00;;;;;;;21.68;12.13;;;20.50;80.20;;;;;;1905218;75;21015;-56
2022/09/30 18:21:30;;;;;;;24.70;11.03;;;20.50;80.40;;;;;;1905245;75;21325;-56
2022/09/30 18:24:01;;;;;;;19.57;11.10;;;20.50;80.70;;;;;;1905303;75;21032;-56
2022/09/30 18:26:31;;;;;;;25.40;13.25;;;20.40;80.80;;;;;;1905267;75;21086;-57
2022/09/30 18:29:00;;;;;;;22.62;11.18;;;20.40;80.90;;;;;;1905195;75;21028;-56
2022/09/30 18:31:36;;;;;;;14.83;8.90;;;20.40;80.90;;;;;;1905314;75;21489;-56
2022/09/30 18:34:06;;;;;;;23.40;11.33;;;20.40;81.10;;;;;;1905370;74;21077;-56
2022/09/30 18:36:36;;;;;;;18.25;11.38;;;20.30;81.20;;;;;;1905206;75;21023;-56
2022/09/30 18:39:05;;;;;;;21.00;10.45;;;20.30;81.10;;;;;;1905347;75;21015;-56
2022/09/30 18:41:34;;;;;;;24.15;11.20;;;20.30;81.10;;;;;;1905161;75;21011;-56
2022/09/30 18:44:04;;;;;;;22.55;10.72;;;20.30;80.90;;;;;;1905240;75;21466;-56
2022/09/30 18:46:33;;;;;;;15.85;9.50;;;20.20;81.10;;;;;;1905250;75;21089;-56
2022/09/30 18:49:04;;;;;;;16.57;8.90;;;20.20;81.30;;;;;;1905192;75;21092;-56
2022/09/30 18:51:33;;;;;;;14.95;8.33;;;20.20;81.40;;;;;;1905158;75;21089;-57
2022/09/30 18:54:04;;;;;;;13.18;8.30;;;20.10;81.50;;;;;;1921904;74;21550;-56
2022/09/30 18:56:34;;;;;;;12.45;7.72;;;20.10;81.50;;;;;;1924615;74;21026;-56
2022/09/30 18:59:04;;;;;;;14.05;8.38;;;20.10;81.50;;;;;;1924663;74;21023;-56
2022/09/30 19:01:34;;;;;;;10.43;8.08;;;20.00;81.60;;;;;;1924493;74;21010;-56
2022/09/30 19:04:04;;;;;;;16.12;8.58;;;20.00;81.70;;;;;;1924601;74;21039;-57
2022/09/30 19:06:34;;;;;;;18.23;9.80;;;20.00;81.90;;;;;;1924610;74;21022;-56
2022/09/30 19:09:09;;;;;;;20.05;8.48;;;19.90;82.00;;;;;;1924685;74;21080;-56
2022/09/30 19:11:35;;;;;;;10.68;8.10;;;19.90;82.00;;;;;;1923823;74;21473;-56
2022/09/30 19:14:05;;;;;;;13.72;8.48;;;19.90;82.20;;;;;;1924806;74;21080;-56
2022/09/30 19:16:36;;;;;;;16.32;9.98;;;19.90;82.30;;;;;;1924756;74;21042;-56
2022/09/30 19:19:07;;;;;;;24.50;12.63;;;19.90;82.40;;;;;;1924785;74;21022;-56
2022/09/30 19:21:36;;;;;;;51.42;16.55;;;19.90;82.50;;;;;;1924668;74;21076;-56
2022/09/30 19:24:08;;;;;;;61.98;13.40;;;19.80;82.00;;;;;;1924733;74;21031;-56
2022/09/30 19:26:39;;;;;;;25.88;10.23;;;19.80;81.80;;;;;;1924685;74;21038;-56
2022/09/30 19:29:09;;;;;;;20.48;9.60;;;19.70;82.00;;;;;;1924759;74;21077;-56
2022/09/30 19:31:39;;;;;;;24.82;11.63;;;19.70;82.50;;;;;;1924689;74;21100;-56
2022/09/30 19:34:10;;;;;;;19.23;10.30;;;19.70;82.90;;;;;;1924799;74;21026;-56
2022/09/30 19:36:39;;;;;;;17.85;10.40;;;19.60;82.90;;;;;;1924672;74;21092;-56
2022/09/30 19:39:08;;;;;;;17.82;9.50;;;19.60;82.90;;;;;;1924808;74;21019;-56
2022/09/30 19:41:37;;;;;;;11.73;7.55;;;19.70;83.20;;;;;;1924628;74;21414;-56
2022/09/30 19:44:07;;;;;;;18.85;10.48;;;19.60;83.40;;;;;;1924722;74;21079;-56
2022/09/30 19:46:36;;;;;;;12.20;8.90;;;19.60;83.60;;;;;;1924639;74;21042;-56
2022/09/30 19:49:06;;;;;;;21.70;10.85;;;19.60;83.60;;;;;;1924811;74;21036;-56
2022/09/30 19:51:35;;;;;;;16.27;8.80;;;19.60;83.50;;;;;;1924644;74;21084;-56
2022/09/30 19:54:05;;;;;;;18.52;10.08;;;19.60;83.40;;;;;;1924642;74;21116;-56
2022/09/30 19:56:36;;;;;;;15.45;9.75;;;19.50;83.60;;;;;;1924797;74;21027;-56
2022/09/30 19:59:05;;;;;;;16.62;9.03;;;19.50;83.60;;;;;;1924720;74;21011;-56
2022/09/30 20:01:34;;;;;;;20.12;10.13;;;19.40;83.90;;;;;;1924637;74;21023;-56
2022/09/30 20:04:04;;;;;;;12.05;8.63;;;19.40;84.00;;;;;;1924744;74;21406;-56
2022/09/30 20:06:34;;;;;;;13.80;8.58;;;19.30;84.10;;;;;;1924637;74;21018;-56
2022/09/30 20:09:06;;;;;;;13.48;8.58;;;19.30;84.40;;;;;;1924681;74;21018;-56
2022/09/30 20:11:37;;;;;;;20.12;9.73;;;19.30;84.60;;;;;;1924659;74;21019;-56
2022/09/30 20:16:55;;;;;;;9.68;7.70;;;19.30;84.50;;;;;;1924787;74;21093;-56
2022/09/30 20:19:25;;;;;;;11.48;7.55;;;19.30;84.70;;;;;;1924633;74;21019;-56
2022/09/30 20:21:54;;;;;;;10.60;7.15;;;19.30;84.90;;;;;;1924848;74;21034;-56
2022/09/30 20:24:24;;;;;;;8.13;7.30;;;19.30;85.00;;;;;;1924794;74;21104;-56
2022/09/30 20:26:53;;;;;;;9.08;7.37;;;19.30;84.90;;;;;;1924661;74;21019;-56
2022/09/30 20:29:22;;;;;;;10.18;7.62;;;19.30;85.00;;;;;;1924655;74;21079;-56
2022/09/30 20:31:51;;;;;;;8.83;7.70;;;19.20;85.10;;;;;;1924822;74;21097;-56
2022/09/30 20:34:21;;;;;;;10.35;7.05;;;19.20;85.00;;;;;;1924750;74;21065;-56
2022/09/30 20:36:50;;;;;;;8.00;7.12;;;19.20;85.00;;;;;;1924743;74;21115;-56
2022/09/30 20:39:20;;;;;;;10.05;7.12;;;19.20;85.20;;;;;;1924757;74;21034;-56
2022/09/30 20:41:49;;;;;;;11.10;7.47;;;19.20;85.40;;;;;;1924644;74;21093;-56
2022/09/30 20:44:20;;;;;;;7.58;6.65;;;19.20;85.30;;;;;;1924712;74;21022;-56
2022/09/30 20:46:49;;;;;;;9.68;6.40;;;19.20;85.40;;;;;;1924788;74;21433;-56
2022/09/30 20:49:19;;;;;;;12.82;6.85;;;19.20;86.10;;;;;;1924757;74;21018;-56
2022/09/30 20:51:48;;;;;;;11.38;6.50;;;19.20;85.40;;;;;;1924724;74;21023;-56
2022/09/30 20:54:18;;;;;;;8.00;6.35;;;19.10;85.00;;;;;;1924754;74;21097;-56
2022/09/30 20:56:47;;;;;;;7.85;6.70;;;19.10;85.10;;;;;;1924753;74;21026;-56
2022/09/30 20:59:17;;;;;;;7.65;6.35;;;19.00;85.50;;;;;;1924746;74;20994;-56
2022/09/30 21:01:46;;;;;;;8.68;6.42;;;19.00;85.60;;;;;;1924688;74;21437;-56
2022/09/30 21:04:15;;;;;;;7.58;6.67;;;18.90;85.60;;;;;;1924605;74;21138;-56
2022/09/30 21:06:46;;;;;;;10.08;6.95;;;18.80;85.70;;;;;;1924735;74;21092;-56
2022/09/30 21:09:15;;;;;;;7.03;6.33;;;18.80;85.90;;;;;;1924717;74;21499;-56
2022/09/30 21:11:45;;;;;;;10.03;6.40;;;18.80;86.00;;;;;;1924652;74;21019;-56
2022/09/30 21:14:18;;;;;;;11.65;7.10;;;18.80;86.00;;;;;;1924711;74;21081;-56
2022/09/30 21:16:47;;;;;;;12.63;6.85;;;18.80;86.00;;;;;;1924731;74;21077;-56
2022/09/30 21:19:17;;;;;;;16.95;7.28;;;18.80;85.90;;;;;;1924589;74;21109;-56
2022/09/30 21:21:47;;;;;;;19.67;8.20;;;18.70;85.70;;;;;;1924622;74;21010;-56
2022/09/30 21:24:16;;;;;;;20.97;7.62;;;18.70;85.70;;;;;;1924503;74;21026;-56
2022/09/30 21:26:45;;;;;;;13.95;7.03;;;18.70;85.80;;;;;;1924580;74;21034;-56
2022/09/30 21:29:15;;;;;;;17.32;7.75;;;18.70;86.00;;;;;;1924649;74;21429;-56
2022/09/30 21:31:44;;;;;;;10.95;6.92;;;18.60;86.00;;;;;;1924680;74;21084;-56
2022/09/30 21:34:14;;;;;;;11.65;6.75;;;18.60;86.10;;;;;;1924470;74;21011;-56
2022/09/30 21:36:45;;;;;;;10.63;7.37;;;18.50;86.30;;;;;;1924689;74;21081;-56
2022/09/30 21:39:14;;;;;;;14.13;6.92;;;18.50;86.40;;;;;;1924522;74;21015;-56
2022/09/30 21:41:43;;;;;;;9.20;6.53;;;18.50;86.40;;;;;;1924549;74;21096;-56
2022/09/30 21:44:14;;;;;;;12.58;6.92;;;18.40;86.60;;;;;;1924430;74;20987;-56
2022/09/30 21:46:45;;;;;;;8.75;6.83;;;18.40;86.70;;;;;;1924518;74;21089;-56
2022/09/30 21:49:19;;;;;;;13.85;7.92;;;18.40;86.80;;;;;;1924489;74;21022;-56
2022/09/30 21:51:50;;;;;;;15.48;7.72;;;18.40;86.50;;;;;;1924669;74;21078;-56
2022/09/30 21:54:20;;;;;;;9.58;7.67;;;18.40;86.10;;;;;;1920035;74;21039;-56
2022/09/30 21:56:50;;;;;;;15.80;9.28;;;18.30;86.40;;;;;;1905185;75;21100;-56
2022/09/30 21:59:19;;;;;;;18.30;10.58;;;18.20;86.60;;;;;;1905162;75;21043;-56
2022/09/30 22:01:49;;;;;;;22.20;14.03;;;18.20;86.20;;;;;;1905355;74;21418;-56
2022/09/30 22:04:18;;;;;;;20.30;11.93;;;18.10;85.90;;;;;;1905217;75;21086;-56
2022/09/30 22:06:47;;;;;;;19.40;12.00;;;18.00;85.60;;;;;;1905309;75;21019;-56
2022/09/30 22:09:16;;;;;;;17.80;10.95;;;17.90;85.70;;;;;;1905281;75;21015;-56
2022/09/30 22:11:46;;;;;;;14.45;10.35;;;17.90;86.10;;;;;;1905117;75;21077;-56
2022/09/30 22:14:15;;;;;;;18.17;9.28;;;17.80;86.20;;;;;;1905148;75;21077;-56
2022/09/30 22:16:46;;;;;;;13.98;8.50;;;17.80;86.20;;;;;;1905162;75;21442;-56
2022/09/30 22:19:15;;;;;;;22.40;10.85;;;17.80;86.50;;;;;;1905274;75;21015;-56
2022/09/30 22:21:44;;;;;;;12.25;8.05;;;17.80;86.70;;;;;;1905111;74;21473;-56
2022/09/30 22:24:14;;;;;;;10.10;7.67;;;17.80;86.70;;;;;;1905060;74;21015;-56
2022/09/30 22:26:43;;;;;;;8.35;6.72;;;17.90;86.90;;;;;;1905217;75;21019;-56
2022/09/30 22:29:13;;;;;;;8.85;6.25;;;17.90;87.10;;;;;;1905207;75;21078;-56
2022/09/30 22:31:42;;;;;;;10.78;6.72;;;17.90;87.10;;;;;;1905094;75;21105;-56
2022/09/30 22:39:48;;;;;;;9.50;6.70;;;18.00;87.10;;;;;;1905222;75;21108;-55
2022/09/30 22:42:17;;;;;;;13.15;6.83;;;18.00;87.20;;;;;;1905268;75;21040;-56
2022/09/30 22:44:47;;;;;;;9.75;6.17;;;18.00;87.40;;;;;;1905238;75;21016;-55
2022/09/30 22:47:16;;;;;;;9.23;6.47;;;18.10;87.30;;;;;;1905171;75;21069;-56
2022/09/30 22:49:46;;;;;;;13.38;7.58;;;18.10;87.40;;;;;;1905284;74;21027;-56
2022/09/30 22:52:15;;;;;;;11.68;7.08;;;18.10;87.40;;;;;;1905290;75;21023;-56
2022/09/30 22:54:45;;;;;;;12.47;8.20;;;18.10;87.20;;;;;;1905068;74;21043;-56
2022/09/30 22:57:15;;;;;;;14.40;7.67;;;18.10;86.90;;;;;;1905320;75;21085;-56
2022/09/30 22:59:46;;;;;;;10.15;6.72;;;18.10;86.60;;;;;;1905204;75;21008;-56
2022/09/30 23:02:16;;;;;;;8.18;7.15;;;18.10;86.60;;;;;;1905224;75;21059;-56
2022/09/30 23:04:45;;;;;;;12.13;6.80;;;18.00;86.40;;;;;;1905048;75;21075;-56
2022/09/30 23:07:14;;;;;;;9.73;6.53;;;17.90;86.80;;;;;;1905323;74;21438;-55
2022/09/30 23:09:44;;;;;;;11.10;7.30;;;17.80;87.20;;;;;;1905089;75;21101;-56
2022/09/30 23:12:13;;;;;;;9.08;6.72;;;17.80;87.20;;;;;;1905158;74;20995;-55
2022/09/30 23:14:42;;;;;;;9.90;6.53;;;17.80;87.00;;;;;;1905234;74;21019;-56
2022/09/30 23:17:14;;;;;;;11.12;6.50;;;17.60;86.80;;;;;;1905157;75;21047;-55
2022/09/30 23:19:44;;;;;;;9.33;6.78;;;17.60;87.00;;;;;;1905232;75;21015;-55
2022/09/30 23:22:13;;;;;;;8.15;5.80;;;17.50;87.30;;;;;;1905265;75;20999;-56
2022/09/30 23:24:43;;;;;;;10.95;6.50;;;17.50;87.20;;;;;;1905017;74;21085;-56
2022/09/30 23:27:12;;;;;;;8.95;6.85;;;17.50;87.10;;;;;;1905177;75;21109;-56
2022/09/30 23:29:42;;;;;;;10.72;7.03;;;17.50;87.20;;;;;;1905124;75;21059;-56
2022/09/30 23:32:11;;;;;;;11.93;6.90;;;17.50;87.20;;;;;;1905281;75;21043;-56
2022/09/30 23:34:40;;;;;;;10.38;6.45;;;17.50;87.10;;;;;;1905146;75;21505;-55
2022/09/30 23:37:10;;;;;;;9.65;6.83;;;17.50;87.30;;;;;;1905216;75;21091;-56
2022/09/30 23:39:39;;;;;;;9.63;6.90;;;17.50;87.50;;;;;;1905142;75;21082;-56
2022/09/30 23:42:09;;;;;;;13.22;7.83;;;17.60;87.70;;;;;;1905255;75;21085;-55
2022/09/30 23:44:38;;;;;;;9.60;6.70;;;17.60;87.50;;;;;;1905050;75;21089;-55
2022/09/30 23:47:20;;;;;;;8.83;6.10;;;17.60;87.70;;;;;;1905245;74;21077;-56
2022/09/30 23:49:49;;;;;;;9.50;7.05;;;17.50;87.90;;;;;;1905308;75;21031;-55
2022/09/30 23:52:19;;;;;;;13.03;8.10;;;17.60;88.00;;;;;;1905250;74;21097;-56
2022/09/30 23:54:48;;;;;;;12.00;8.13;;;17.60;88.40;;;;;;1905134;74;21089;-56
2022/09/30 23:57:17;;;;;;;8.80;7.37;;;17.50;88.00;;;;;;1905351;74;21019;-56
2022/09/30 23:59:46;;;;;;;12.65;6.70;;;17.60;88.00;;;;;;1905332;75;21023;-55
